Time;durP1;ratioP1;P1;durP2;ratioP2;P2;SDS_P1;SDS_P2;PMS_P1;PMS_P2;Temp;Humidity;BMP_temperature;BMP_pressure;BME280_temperature;BME280_humidity;BME280_pressure;Samples;Min_cycle;Max_cycle;Signal;HPM_P1;HPM_P2
2022/06/11 00:01:34;;;;;;;11.60;3.42;;;;;;;;;;5101434;28;20039;-63
2022/06/11 00:04:03;;;;;;;20.42;4.00;;;;;;;;;;5103069;28;20135;-63
2022/06/11 00:06:31;;;;;;;13.15;3.20;;;;;;;;;;5104404;28;20048;-63
2022/06/11 00:08:57;;;;;;;17.05;3.88;;;;;;;;;;5101780;28;20501;-63
2022/06/11 00:11:24;;;;;;;16.92;4.38;;;;;;;;;;5084702;28;20044;-63
2022/06/11 00:13:50;;;;;;;13.77;3.58;;;;;;;;;;5099770;28;20043;-62
2022/06/11 00:16:17;;;;;;;15.68;3.75;;;;;;;;;;5058349;28;20131;-63
2022/06/11 00:18:44;;;;;;;14.73;3.50;;;;;;;;;;5100126;28;20040;-63
2022/06/11 00:21:11;;;;;;;16.25;3.88;;;;;;;;;;5100501;28;20039;-63
2022/06/11 00:23:38;;;;;;;17.15;3.25;;;;;;;;;;5102144;28;20040;-62
2022/06/11 00:26:05;;;;;;;21.83;4.47;;;;;;;;;;5101648;28;20135;-62
2022/06/11 00:28:32;;;;;;;12.82;3.75;;;;;;;;;;5102405;28;20103;-63
2022/06/11 00:30:58;;;;;;;18.95;4.28;;;;;;;;;;5100067;28;20043;-63
2022/06/11 00:33:24;;;;;;;17.27;5.07;;;;;;;;;;5101255;28;20084;-63
2022/06/11 00:35:51;;;;;;;14.85;3.45;;;;;;;;;;5101072;28;20099;-62
2022/06/11 00:38:17;;;;;;;12.75;3.15;;;;;;;;;;5099491;28;20040;-62
2022/06/11 00:40:46;;;;;;;12.52;3.67;;;;;;;;;;5101669;28;20035;-63
2022/06/11 00:43:14;;;;;;;13.88;3.15;;;;;;;;;;5079125;28;20048;-62
2022/06/11 00:45:51;;;;;;;16.88;3.35;;;;;;;;;;5105494;28;20571;-62
2022/06/11 00:48:20;;;;;;;16.48;3.83;;;;;;;;;;5099609;28;20116;-62
2022/06/11 00:50:56;;;;;;;13.23;3.40;;;;;;;;;;5098333;28;20032;-62
2022/06/11 00:53:31;;;;;;;19.58;4.68;;;;;;;;;;5103969;28;20499;-63
2022/06/11 00:55:57;;;;;;;16.30;3.53;;;;;;;;;;5103176;28;20043;-63
2022/06/11 00:58:27;;;;;;;12.93;4.13;;;;;;;;;;5101198;28;20035;-63
2022/06/11 01:00:55;;;;;;;17.83;4.38;;;;;;;;;;5100521;28;20142;-63
2022/06/11 01:03:25;;;;;;;17.60;3.38;;;;;;;;;;5099743;28;20121;-62
2022/06/11 01:05:57;;;;;;;23.75;3.70;;;;;;;;;;5103915;28;20062;-63
2022/06/11 01:08:44;;;;;;;18.48;3.35;;;;;;;;;;5099079;28;20040;-63
2022/06/11 01:11:18;;;;;;;22.67;3.80;;;;;;;;;;5079410;28;20089;-63
2022/06/11 01:13:45;;;;;;;15.45;3.50;;;;;;;;;;5102806;28;20036;-62
2022/06/11 01:16:15;;;;;;;10.55;3.67;;;;;;;;;;5102615;28;20188;-63
2022/06/11 01:18:56;;;;;;;18.55;4.20;;;;;;;;;;5099807;28;20404;-63
2022/06/11 01:21:31;;;;;;;25.42;4.65;;;;;;;;;;5105566;28;20391;-63
2022/06/11 01:24:18;;;;;;;15.65;3.47;;;;;;;;;;5100589;28;20123;-63
2022/06/11 01:26:54;;;;;;;13.02;3.58;;;;;;;;;;5077941;28;20371;-62
2022/06/11 01:29:26;;;;;;;14.82;4.05;;;;;;;;;;5098578;28;20044;-63
2022/06/11 01:31:56;;;;;;;16.38;3.70;;;;;;;;;;5099960;28;20044;-63
2022/06/11 01:34:29;;;;;;;13.63;3.45;;;;;;;;;;5103624;28;20050;-63
2022/06/11 01:36:58;;;;;;;14.10;3.20;;;;;;;;;;5101767;28;20062;-63
2022/06/11 01:39:30;;;;;;;19.50;4.15;;;;;;;;;;5101965;28;20386;-63
2022/06/11 01:42:02;;;;;;;18.13;3.63;;;;;;;;;;5103556;28;20087;-62
2022/06/11 01:44:31;;;;;;;18.23;3.35;;;;;;;;;;5101942;28;20156;-62
2022/06/11 01:46:58;;;;;;;19.08;3.38;;;;;;;;;;5102238;28;20050;-63
2022/06/11 01:49:24;;;;;;;18.60;4.15;;;;;;;;;;5103366;28;20051;-63
2022/06/11 01:51:56;;;;;;;14.93;3.80;;;;;;;;;;5103040;28;20039;-62
2022/06/11 01:54:30;;;;;;;17.40;4.18;;;;;;;;;;5104292;28;20681;-63
2022/06/11 01:57:03;;;;;;;16.40;4.13;;;;;;;;;;5103533;28;21731;-62
2022/06/11 01:59:36;;;;;;;14.15;3.53;;;;;;;;;;5102507;28;20051;-63
2022/06/11 02:02:20;;;;;;;17.03;4.00;;;;;;;;;;5099887;28;20040;-63
2022/06/11 02:04:52;;;;;;;11.30;3.20;;;;;;;;;;5102200;28;20816;-63
2022/06/11 02:07:21;;;;;;;12.45;3.80;;;;;;;;;;5103164;28;20177;-63
2022/06/11 02:09:57;;;;;;;21.38;3.83;;;;;;;;;;5101975;28;20043;-62
2022/06/11 02:12:28;;;;;;;15.45;3.38;;;;;;;;;;5100732;28;20051;-63
2022/06/11 02:14:56;;;;;;;18.35;4.88;;;;;;;;;;5100595;28;20050;-63
2022/06/11 02:17:24;;;;;;;17.52;3.72;;;;;;;;;;5084116;28;20082;-63
2022/06/11 02:20:04;;;;;;;15.85;3.97;;;;;;;;;;5097814;28;20127;-62
2022/06/11 02:22:33;;;;;;;19.23;3.63;;;;;;;;;;5080756;28;20077;-63
2022/06/11 02:25:04;;;;;;;19.23;3.50;;;;;;;;;;5102730;28;20044;-63
2022/06/11 02:27:31;;;;;;;13.32;3.65;;;;;;;;;;5103201;28;20121;-63
2022/06/11 02:29:57;;;;;;;16.52;4.28;;;;;;;;;;5099149;28;20741;-62
2022/06/11 02:32:25;;;;;;;18.58;4.25;;;;;;;;;;5081187;28;20051;-62
2022/06/11 02:34:53;;;;;;;18.27;4.25;;;;;;;;;;5100401;28;20048;-63
2022/06/11 02:37:22;;;;;;;23.38;4.22;;;;;;;;;;5100804;28;20363;-63
2022/06/11 02:39:49;;;;;;;16.25;4.47;;;;;;;;;;5082713;28;20075;-63
2022/06/11 02:42:17;;;;;;;18.83;4.60;;;;;;;;;;5094779;28;20044;-62
2022/06/11 02:44:43;;;;;;;17.05;4.20;;;;;;;;;;5098130;28;20058;-63
2022/06/11 02:47:11;;;;;;;17.42;4.50;;;;;;;;;;5099834;28;20092;-63
2022/06/11 02:49:38;;;;;;;25.42;4.65;;;;;;;;;;5100126;28;20117;-63
2022/06/11 02:52:07;;;;;;;26.63;6.10;;;;;;;;;;5099789;28;20048;-63
2022/06/11 02:54:33;;;;;;;17.48;4.88;;;;;;;;;;5095215;28;20455;-63
2022/06/11 02:57:01;;;;;;;17.88;4.78;;;;;;;;;;5098405;28;20509;-63
2022/06/11 02:59:27;;;;;;;17.55;4.05;;;;;;;;;;5094045;28;20093;-63
2022/06/11 03:01:54;;;;;;;23.95;4.97;;;;;;;;;;5097673;28;20453;-63
2022/06/11 03:04:23;;;;;;;18.63;4.60;;;;;;;;;;5097078;28;20036;-63
2022/06/11 03:06:50;;;;;;;24.45;4.80;;;;;;;;;;5095376;28;20055;-63
2022/06/11 03:09:18;;;;;;;18.55;4.22;;;;;;;;;;5080557;28;20066;-63
2022/06/11 03:11:44;;;;;;;21.92;4.97;;;;;;;;;;5076291;28;20394;-62
2022/06/11 03:14:11;;;;;;;20.80;5.35;;;;;;;;;;5093336;28;20494;-62
2022/06/11 03:16:37;;;;;;;18.88;4.38;;;;;;;;;;5082707;28;20039;-63
2022/06/11 03:19:04;;;;;;;21.42;5.68;;;;;;;;;;5077088;28;20715;-63
2022/06/11 03:21:30;;;;;;;22.98;5.55;;;;;;;;;;5078817;28;20258;-63
2022/06/11 03:23:56;;;;;;;28.38;5.97;;;;;;;;;;5097109;28;20071;-63
2022/06/11 03:26:23;;;;;;;20.42;5.10;;;;;;;;;;5100949;28;20039;-63
2022/06/11 03:28:49;;;;;;;18.52;3.95;;;;;;;;;;5082559;28;20047;-63
2022/06/11 03:31:15;;;;;;;26.88;5.80;;;;;;;;;;5102852;28;20123;-63
2022/06/11 03:33:41;;;;;;;24.52;5.20;;;;;;;;;;5098459;28;20378;-63
2022/06/11 03:36:10;;;;;;;23.08;5.28;;;;;;;;;;5096511;28;20040;-62
2022/06/11 03:38:36;;;;;;;25.02;5.15;;;;;;;;;;5076923;28;20048;-63
2022/06/11 03:41:04;;;;;;;21.17;4.55;;;;;;;;;;5097993;28;20118;-63
2022/06/11 03:43:30;;;;;;;25.38;4.70;;;;;;;;;;5098787;28;20464;-63
2022/06/11 03:45:58;;;;;;;21.35;5.78;;;;;;;;;;5053323;28;20614;-63
2022/06/11 03:48:24;;;;;;;21.45;4.65;;;;;;;;;;5062693;28;20113;-62
2022/06/11 03:50:51;;;;;;;21.25;4.85;;;;;;;;;;5081627;28;20032;-63
2022/06/11 03:53:17;;;;;;;28.30;4.85;;;;;;;;;;5079908;28;20196;-63
2022/06/11 03:55:45;;;;;;;25.15;5.80;;;;;;;;;;5078294;28;20048;-63
2022/06/11 03:58:11;;;;;;;24.52;6.00;;;;;;;;;;5075437;28;20463;-63
2022/06/11 04:03:23;;;;;;;26.75;5.65;;;;;;;;;;5079922;28;20043;-63
2022/06/11 04:05:50;;;;;;;18.55;4.57;;;;;;;;;;5075373;28;20043;-63
2022/06/11 04:08:17;;;;;;;21.23;5.25;;;;;;;;;;5079099;28;20041;-63
2022/06/11 04:10:44;;;;;;;18.25;4.90;;;;;;;;;;5056879;28;20055;-69
2022/06/11 04:13:10;;;;;;;19.10;5.20;;;;;;;;;;5076531;28;20078;-63
2022/06/11 04:15:37;;;;;;;24.45;5.53;;;;;;;;;;5075027;28;20048;-63
2022/06/11 04:18:04;;;;;;;16.45;4.60;;;;;;;;;;5072720;28;20486;-63
2022/06/11 04:20:31;;;;;;;27.58;6.00;;;;;;;;;;5076391;28;20054;-63
2022/06/11 04:22:57;;;;;;;27.73;6.72;;;;;;;;;;5078256;28;20732;-63
2022/06/11 04:25:24;;;;;;;21.90;5.82;;;;;;;;;;5070007;28;20152;-63
2022/06/11 04:27:53;;;;;;;20.27;4.85;;;;;;;;;;5074449;28;22111;-62
2022/06/11 04:30:20;;;;;;;25.95;5.60;;;;;;;;;;5083387;28;20109;-62
2022/06/11 04:32:46;;;;;;;23.83;5.65;;;;;;;;;;5058083;28;20134;-62
2022/06/11 04:35:12;;;;;;;31.42;6.55;;;;;;;;;;5077490;28;20155;-63
2022/06/11 04:37:38;;;;;;;28.88;7.53;;;;;;;;;;5081066;28;20523;-62
2022/06/11 04:40:07;;;;;;;27.98;6.93;;;;;;;;;;5080822;28;20036;-62
2022/06/11 04:42:34;;;;;;;30.17;6.10;;;;;;;;;;5079633;28;20055;-62
2022/06/11 04:45:00;;;;;;;28.58;6.10;;;;;;;;;;5092493;28;20144;-62
2022/06/11 04:47:28;;;;;;;29.08;6.25;;;;;;;;;;5106902;28;20040;-63
2022/06/11 04:49:55;;;;;;;29.73;6.45;;;;;;;;;;5106639;28;20514;-62
2022/06/11 04:52:21;;;;;;;32.25;7.78;;;;;;;;;;5106154;28;20126;-62
2022/06/11 04:54:48;;;;;;;27.25;6.40;;;;;;;;;;5090626;28;20048;-63
2022/06/11 04:57:14;;;;;;;26.58;6.20;;;;;;;;;;5102669;28;20059;-63
2022/06/11 04:59:40;;;;;;;31.75;7.45;;;;;;;;;;5102118;28;20119;-63
2022/06/11 05:02:06;;;;;;;28.20;5.85;;;;;;;;;;5102806;28;20051;-63
2022/06/11 05:04:33;;;;;;;32.17;7.80;;;;;;;;;;5101756;28;20036;-63
2022/06/11 05:06:59;;;;;;;36.40;7.45;;;;;;;;;;5081826;28;20082;-63
2022/06/11 05:09:26;;;;;;;32.63;7.65;;;;;;;;;;5080234;28;20394;-63
2022/06/11 05:11:53;;;;;;;38.30;7.80;;;;;;;;;;5103652;28;20056;-63
2022/06/11 05:14:19;;;;;;;36.17;7.78;;;;;;;;;;5095653;28;20043;-62
2022/06/11 05:16:46;;;;;;;34.75;7.70;;;;;;;;;;5098919;28;20130;-63
2022/06/11 05:19:14;;;;;;;37.90;9.02;;;;;;;;;;5099542;28;20118;-62
2022/06/11 05:21:40;;;;;;;35.88;8.50;;;;;;;;;;5083525;28;20066;-62
2022/06/11 05:24:07;;;;;;;42.25;9.50;;;;;;;;;;5097821;28;20066;-63
2022/06/11 05:26:38;;;;;;;34.70;9.23;;;;;;;;;;5099681;28;20092;-63
2022/06/11 05:29:05;;;;;;;31.17;8.38;;;;;;;;;;5097951;28;20050;-62
2022/06/11 05:31:31;;;;;;;42.30;8.80;;;;;;;;;;5081839;28;20509;-63
2022/06/11 05:33:57;;;;;;;36.28;8.73;;;;;;;;;;5078726;28;20059;-62
2022/06/11 05:36:24;;;;;;;33.97;8.88;;;;;;;;;;5098703;28;20048;-62
2022/06/11 05:38:50;;;;;;;35.05;8.45;;;;;;;;;;5099105;28;20616;-63
2022/06/11 05:41:16;;;;;;;37.78;8.75;;;;;;;;;;5081821;28;20063;-62
2022/06/11 05:43:44;;;;;;;32.72;7.53;;;;;;;;;;5080482;28;20092;-63
2022/06/11 05:46:12;;;;;;;37.00;9.23;;;;;;;;;;5094096;28;20059;-62
2022/06/11 05:48:43;;;;;;;38.58;7.95;;;;;;;;;;5097070;28;20048;-63
2022/06/11 05:51:12;;;;;;;35.08;7.85;;;;;;;;;;5098318;28;20923;-62
2022/06/11 05:53:39;;;;;;;35.65;8.10;;;;;;;;;;5095392;28;20036;-62
2022/06/11 05:56:05;;;;;;;44.25;8.07;;;;;;;;;;5100212;28;20047;-62
2022/06/11 05:58:34;;;;;;;33.42;7.90;;;;;;;;;;5099327;28;20052;-62
2022/06/11 06:01:01;;;;;;;29.73;6.80;;;;;;;;;;5100131;28;20108;-63
2022/06/11 06:03:27;;;;;;;47.60;10.18;;;;;;;;;;5099688;28;20118;-63
2022/06/11 06:05:53;;;;;;;39.85;8.50;;;;;;;;;;5098671;28;20083;-63
2022/06/11 06:08:20;;;;;;;34.20;8.48;;;;;;;;;;5099053;28;20048;-63
2022/06/11 06:10:46;;;;;;;36.95;7.65;;;;;;;;;;5087266;28;20128;-63
2022/06/11 06:15:57;;;;;;;36.75;8.13;;;;;;;;;;5098923;28;20048;-63
2022/06/11 06:18:23;;;;;;;41.50;9.18;;;;;;;;;;5102145;28;20115;-63
2022/06/11 06:20:50;;;;;;;33.90;7.80;;;;;;;;;;5100208;28;20066;-63
2022/06/11 06:23:16;;;;;;;30.15;7.47;;;;;;;;;;5103549;28;20137;-63
2022/06/11 06:25:42;;;;;;;32.55;6.43;;;;;;;;;;5102439;28;20040;-63
2022/06/11 06:28:09;;;;;;;29.15;6.93;;;;;;;;;;5104067;28;20077;-63
2022/06/11 06:30:35;;;;;;;27.80;6.80;;;;;;;;;;5101975;28;20130;-63
2022/06/11 06:33:02;;;;;;;28.23;6.55;;;;;;;;;;5098422;28;20039;-63
2022/06/11 06:35:28;;;;;;;32.42;7.20;;;;;;;;;;5096051;28;20059;-63
2022/06/11 06:37:54;;;;;;;35.15;6.78;;;;;;;;;;5103570;28;20071;-63
2022/06/11 06:40:21;;;;;;;31.27;7.35;;;;;;;;;;5085607;28;20047;-63
2022/06/11 06:42:47;;;;;;;41.47;7.13;;;;;;;;;;5101591;28;20337;-63
2022/06/11 06:45:15;;;;;;;33.10;7.13;;;;;;;;;;5085160;28;20043;-63
2022/06/11 06:47:42;;;;;;;28.55;6.28;;;;;;;;;;5085067;28;20452;-63
2022/06/11 06:50:08;;;;;;;26.95;4.85;;;;;;;;;;5103800;28;20142;-67
2022/06/11 06:52:35;;;;;;;21.42;4.13;;;;;;;;;;5076418;28;20046;-63
2022/06/11 06:55:01;;;;;;;28.75;5.85;;;;;;;;;;5103811;28;20046;-63
2022/06/11 06:57:27;;;;;;;27.60;5.82;;;;;;;;;;5097813;28;20075;-62
2022/06/11 06:59:53;;;;;;;25.60;6.15;;;;;;;;;;5086644;28;20790;-62
2022/06/11 07:02:19;;;;;;;35.45;6.70;;;;;;;;;;5102458;28;20048;-62
2022/06/11 07:04:46;;;;;;;37.53;6.90;;;;;;;;;;5088468;28;20043;-62
2022/06/11 07:07:19;;;;;;;24.23;5.75;;;;;;;;;;5104598;28;20422;-63
2022/06/11 07:09:45;;;;;;;34.92;6.22;;;;;;;;;;5100675;28;20586;-63
2022/06/11 07:12:11;;;;;;;33.20;5.85;;;;;;;;;;5083456;28;20032;-62
2022/06/11 07:14:37;;;;;;;27.48;5.60;;;;;;;;;;5080276;28;20066;-63
2022/06/11 07:17:06;;;;;;;21.33;5.30;;;;;;;;;;5081242;28;20483;-63
2022/06/11 07:19:37;;;;;;;25.15;4.82;;;;;;;;;;5094644;28;20039;-63
2022/06/11 07:22:07;;;;;;;29.55;5.65;;;;;;;;;;5103584;28;20126;-63
2022/06/11 07:24:36;;;;;;;37.60;5.72;;;;;;;;;;5102270;28;20405;-63
2022/06/11 07:27:05;;;;;;;24.08;5.55;;;;;;;;;;5100827;28;20044;-63
2022/06/11 07:29:33;;;;;;;29.67;5.35;;;;;;;;;;5095353;28;20165;-63
2022/06/11 07:32:02;;;;;;;23.10;5.63;;;;;;;;;;5078672;28;20047;-63
2022/06/11 07:34:29;;;;;;;27.30;5.45;;;;;;;;;;5103175;28;20055;-63
2022/06/11 07:36:57;;;;;;;31.98;6.38;;;;;;;;;;5085518;28;20488;-63
2022/06/11 07:39:23;;;;;;;31.80;7.10;;;;;;;;;;5098044;28;21683;-64
2022/06/11 07:41:49;;;;;;;25.30;5.78;;;;;;;;;;5083749;28;20055;-63
2022/06/11 07:44:15;;;;;;;29.52;6.00;;;;;;;;;;5094813;28;20085;-63
2022/06/11 07:46:42;;;;;;;30.35;5.85;;;;;;;;;;5096953;28;20522;-63
2022/06/11 07:49:08;;;;;;;28.33;5.50;;;;;;;;;;5100696;28;20089;-63
2022/06/11 07:51:34;;;;;;;21.70;4.97;;;;;;;;;;5095833;28;20498;-64
2022/06/11 07:54:00;;;;;;;27.25;6.57;;;;;;;;;;5098701;28;20043;-63
2022/06/11 07:56:26;;;;;;;23.17;5.75;;;;;;;;;;5100975;28;20093;-64
2022/06/11 07:58:53;;;;;;;25.83;5.18;;;;;;;;;;5102149;28;20126;-64
2022/06/11 08:01:19;;;;;;;33.38;5.18;;;;;;;;;;5100419;28;20047;-64
2022/06/11 08:03:45;;;;;;;29.95;5.63;;;;;;;;;;5105132;28;20129;-64
2022/06/11 08:06:12;;;;;;;29.73;6.40;;;;;;;;;;5104515;28;20052;-64
2022/06/11 08:08:38;;;;;;;34.42;6.50;;;;;;;;;;5109601;28;20452;-64
2022/06/11 08:11:05;;;;;;;27.85;5.00;;;;;;;;;;5101872;28;20088;-64
2022/06/11 08:13:31;;;;;;;23.48;5.20;;;;;;;;;;5105084;28;20036;-64
2022/06/11 08:15:58;;;;;;;25.45;5.18;;;;;;;;;;5106376;28;20054;-64
2022/06/11 08:18:25;;;;;;;24.17;5.85;;;;;;;;;;5104323;28;20408;-64
2022/06/11 08:20:51;;;;;;;25.38;4.63;;;;;;;;;;5102498;28;20413;-64
2022/06/11 08:23:18;;;;;;;25.83;4.88;;;;;;;;;;5110506;28;20124;-64
2022/06/11 08:25:45;;;;;;;23.48;4.75;;;;;;;;;;5113027;28;20063;-64
2022/06/11 08:28:12;;;;;;;24.65;4.95;;;;;;;;;;5110723;28;20114;-64
2022/06/11 08:30:38;;;;;;;21.88;4.55;;;;;;;;;;5106844;28;20047;-64
2022/06/11 08:33:05;;;;;;;20.05;4.15;;;;;;;;;;5111543;28;20078;-64
2022/06/11 08:35:33;;;;;;;30.42;7.47;;;;;;;;;;5111151;28;20417;-64
2022/06/11 08:37:59;;;;;;;16.20;4.63;;;;;;;;;;5112477;28;20043;-64
2022/06/11 08:40:31;;;;;;;22.50;3.72;;;;;;;;;;5109188;28;20044;-64
2022/06/11 08:43:02;;;;;;;18.90;4.30;;;;;;;;;;5106688;28;20036;-64
2022/06/11 08:45:38;;;;;;;21.10;3.97;;;;;;;;;;5093650;28;20055;-64
2022/06/11 08:48:11;;;;;;;19.48;4.85;;;;;;;;;;5089185;28;20488;-64
2022/06/11 08:50:39;;;;;;;14.45;3.55;;;;;;;;;;5088888;28;20540;-64
2022/06/11 08:53:06;;;;;;;19.95;3.90;;;;;;;;;;5087531;28;20052;-64
2022/06/11 08:55:34;;;;;;;21.35;4.22;;;;;;;;;;5091681;28;20399;-64
2022/06/11 08:58:15;;;;;;;22.67;4.05;;;;;;;;;;5070945;28;20174;-64
2022/06/11 09:00:46;;;;;;;19.25;3.38;;;;;;;;;;5087020;28;20168;-63
2022/06/11 09:03:13;;;;;;;21.30;4.50;;;;;;;;;;5068265;28;20134;-64
2022/06/11 09:05:59;;;;;;;15.27;3.28;;;;;;;;;;5087699;28;20040;-64
2022/06/11 09:08:26;;;;;;;22.38;3.90;;;;;;;;;;5089252;28;20111;-64
2022/06/11 09:10:55;;;;;;;16.00;3.85;;;;;;;;;;5070285;28;20044;-64
2022/06/11 09:13:39;;;;;;;15.52;3.90;;;;;;;;;;5087008;28;20385;-64
2022/06/11 09:16:13;;;;;;;16.15;3.72;;;;;;;;;;5091459;28;20441;-64
2022/06/11 09:18:46;;;;;;;16.77;3.63;;;;;;;;;;5073753;28;20043;-64
2022/06/11 09:21:18;;;;;;;22.95;3.63;;;;;;;;;;5091578;28;20064;-64
2022/06/11 09:23:54;;;;;;;14.07;3.65;;;;;;;;;;5070576;28;20391;-64
2022/06/11 09:26:27;;;;;;;20.00;4.15;;;;;;;;;;5091741;28;20743;-64
2022/06/11 09:28:56;;;;;;;25.38;4.38;;;;;;;;;;5091426;28;20036;-64
2022/06/11 09:31:29;;;;;;;19.50;4.03;;;;;;;;;;5088354;28;20135;-64
2022/06/11 09:34:00;;;;;;;21.02;3.88;;;;;;;;;;5087847;28;20098;-64
2022/06/11 09:36:29;;;;;;;17.13;4.00;;;;;;;;;;5088931;28;20047;-64
2022/06/11 09:39:08;;;;;;;16.63;4.40;;;;;;;;;;5087265;28;20048;-64
2022/06/11 09:41:40;;;;;;;14.48;3.67;;;;;;;;;;5089542;28;20040;-64
2022/06/11 09:44:17;;;;;;;14.50;3.70;;;;;;;;;;5093194;28;20035;-64
2022/06/11 09:46:48;;;;;;;15.20;3.13;;;;;;;;;;5112154;28;20047;-64
2022/06/11 09:49:24;;;;;;;15.18;3.63;;;;;;;;;;5092980;28;20079;-64
2022/06/11 09:51:56;;;;;;;19.35;4.50;;;;;;;;;;5109596;28;20190;-64
2022/06/11 09:54:22;;;;;;;16.95;3.47;;;;;;;;;;5107922;28;20487;-64
2022/06/11 09:56:58;;;;;;;14.50;3.22;;;;;;;;;;5108551;28;20036;-64
2022/06/11 09:59:29;;;;;;;10.88;2.92;;;;;;;;;;5108268;28;20066;-64
2022/06/11 10:02:03;;;;;;;18.05;4.55;;;;;;;;;;5091798;28;20044;-64
2022/06/11 10:04:33;;;;;;;14.63;3.03;;;;;;;;;;5091224;28;20052;-64
2022/06/11 10:07:05;;;;;;;13.25;3.78;;;;;;;;;;5111282;28;20047;-64
2022/06/11 10:09:36;;;;;;;18.25;4.03;;;;;;;;;;5111087;28;20044;-64
2022/06/11 10:12:09;;;;;;;17.20;3.58;;;;;;;;;;5107464;28;20036;-64
2022/06/11 10:14:37;;;;;;;16.30;3.83;;;;;;;;;;5110229;28;20047;-64
2022/06/11 10:17:08;;;;;;;15.95;3.83;;;;;;;;;;5107632;28;20039;-64
2022/06/11 10:19:47;;;;;;;16.08;3.25;;;;;;;;;;5089539;28;20039;-64
2022/06/11 10:22:15;;;;;;;12.70;3.13;;;;;;;;;;5105893;28;20041;-64
2022/06/11 10:24:46;;;;;;;13.93;3.78;;;;;;;;;;5093365;28;20096;-65
2022/06/11 10:27:15;;;;;;;14.15;2.80;;;;;;;;;;5110043;28;20052;-64
2022/06/11 10:29:46;;;;;;;13.55;3.25;;;;;;;;;;5091167;28;20691;-64
2022/06/11 10:32:15;;;;;;;14.32;3.70;;;;;;;;;;5107969;28;20036;-64
2022/06/11 10:34:45;;;;;;;14.48;3.60;;;;;;;;;;5109529;28;20039;-64
2022/06/11 10:37:17;;;;;;;21.60;3.53;;;;;;;;;;5109454;28;20086;-64
2022/06/11 10:39:47;;;;;;;18.58;3.92;;;;;;;;;;5089847;28;20044;-64
2022/06/11 10:42:18;;;;;;;15.85;3.55;;;;;;;;;;5110530;28;20399;-64
2022/06/11 10:44:46;;;;;;;13.00;2.92;;;;;;;;;;5105620;28;20048;-64
2022/06/11 10:47:19;;;;;;;14.85;3.25;;;;;;;;;;5090406;28;20044;-64
2022/06/11 10:49:46;;;;;;;10.98;2.90;;;;;;;;;;5092717;28;20372;-64
2022/06/11 10:52:30;;;;;;;15.68;3.90;;;;;;;;;;5110524;28;20080;-64
2022/06/11 10:54:57;;;;;;;16.27;3.22;;;;;;;;;;5105448;28;20035;-64
2022/06/11 10:57:25;;;;;;;13.35;3.40;;;;;;;;;;5109495;28;20040;-64
2022/06/11 10:59:56;;;;;;;11.27;3.28;;;;;;;;;;5108677;28;20032;-64
2022/06/11 11:02:42;;;;;;;15.13;3.70;;;;;;;;;;5103626;28;20047;-64
2022/06/11 11:05:10;;;;;;;15.48;3.22;;;;;;;;;;5108253;28;20051;-64
2022/06/11 11:07:42;;;;;;;15.30;3.15;;;;;;;;;;5106470;28;20213;-64
2022/06/11 11:10:18;;;;;;;8.65;2.50;;;;;;;;;;5107388;28;20143;-64
2022/06/11 11:12:44;;;;;;;11.60;2.33;;;;;;;;;;5110383;28;20179;-64
2022/06/11 11:15:11;;;;;;;13.43;2.80;;;;;;;;;;5107510;28;20047;-64
2022/06/11 11:17:44;;;;;;;14.98;2.88;;;;;;;;;;5087544;28;20096;-64
2022/06/11 11:20:29;;;;;;;12.13;2.72;;;;;;;;;;5105828;28;20237;-64
2022/06/11 11:22:58;;;;;;;14.05;3.10;;;;;;;;;;5106889;28;20071;-64
2022/06/11 11:25:29;;;;;;;9.82;2.30;;;;;;;;;;5090697;28;20497;-64
2022/06/11 11:27:55;;;;;;;12.15;3.17;;;;;;;;;;5107298;28;20036;-64
2022/06/11 11:30:28;;;;;;;8.70;2.15;;;;;;;;;;5108800;28;20105;-64
2022/06/11 11:32:54;;;;;;;11.63;2.55;;;;;;;;;;5090255;28;20057;-64
2022/06/11 11:35:23;;;;;;;8.75;2.08;;;;;;;;;;5105182;28;20043;-64
2022/06/11 11:37:58;;;;;;;9.27;2.50;;;;;;;;;;5108469;28;20339;-64
2022/06/11 11:40:26;;;;;;;14.15;3.20;;;;;;;;;;5087614;28;20043;-64
2022/06/11 11:42:56;;;;;;;15.45;3.42;;;;;;;;;;5084463;28;20048;-64
2022/06/11 11:45:28;;;;;;;8.50;2.53;;;;;;;;;;5084225;28;20043;-63
2022/06/11 11:48:00;;;;;;;9.47;2.47;;;;;;;;;;5101746;28;20490;-64
2022/06/11 11:50:29;;;;;;;12.77;3.03;;;;;;;;;;5105853;28;20345;-64
2022/06/11 11:53:02;;;;;;;13.85;3.00;;;;;;;;;;5108227;28;20035;-64
2022/06/11 11:55:30;;;;;;;10.43;3.22;;;;;;;;;;5102729;28;20031;-64
2022/06/11 11:57:59;;;;;;;13.55;3.28;;;;;;;;;;5105441;28;20040;-64
2022/06/11 12:00:28;;;;;;;12.57;2.58;;;;;;;;;;5089130;28;20411;-64
2022/06/11 12:02:56;;;;;;;11.82;3.33;;;;;;;;;;5083435;28;20489;-64
2022/06/11 12:05:24;;;;;;;13.75;3.50;;;;;;;;;;5105744;28;20043;-64
2022/06/11 12:07:51;;;;;;;14.57;3.78;;;;;;;;;;5084610;28;20047;-64
2022/06/11 12:10:35;;;;;;;14.85;3.30;;;;;;;;;;5104418;28;20474;-64
2022/06/11 12:13:02;;;;;;;10.20;3.25;;;;;;;;;;5105003;28;20515;-64
2022/06/11 12:15:28;;;;;;;12.93;3.72;;;;;;;;;;5109402;28;20048;-64
2022/06/11 12:17:56;;;;;;;12.35;3.20;;;;;;;;;;5108203;28;20040;-64
2022/06/11 12:20:38;;;;;;;13.00;3.72;;;;;;;;;;5100855;28;20085;-64
2022/06/11 12:23:14;;;;;;;13.30;2.63;;;;;;;;;;5089324;28;20043;-64
2022/06/11 12:25:48;;;;;;;14.70;3.30;;;;;;;;;;5091554;28;20495;-64
2022/06/11 12:28:16;;;;;;;12.65;3.28;;;;;;;;;;5096830;28;20040;-64
2022/06/11 12:30:43;;;;;;;16.48;3.58;;;;;;;;;;5094558;28;20047;-64
2022/06/11 12:33:13;;;;;;;14.50;3.60;;;;;;;;;;5095821;28;20130;-64
2022/06/11 12:35:51;;;;;;;18.95;3.85;;;;;;;;;;5098658;28;20044;-65
2022/06/11 12:38:18;;;;;;;17.95;4.35;;;;;;;;;;5102559;28;20075;-64
2022/06/11 12:40:52;;;;;;;12.15;3.22;;;;;;;;;;5098727;28;20048;-64
2022/06/11 12:43:26;;;;;;;11.60;2.80;;;;;;;;;;5101609;28;20047;-64
2022/06/11 12:45:59;;;;;;;14.93;3.47;;;;;;;;;;5081878;28;20759;-64
2022/06/11 12:48:26;;;;;;;15.43;4.28;;;;;;;;;;5078246;28;20048;-64
2022/06/11 12:51:03;;;;;;;11.10;2.95;;;;;;;;;;5078634;28;20384;-64
2022/06/11 12:53:48;;;;;;;14.02;3.63;;;;;;;;;;5080506;28;20140;-64
2022/06/11 12:56:18;;;;;;;16.90;4.30;;;;;;;;;;5079700;28;20044;-64
2022/06/11 12:58:56;;;;;;;15.63;3.92;;;;;;;;;;5068686;28;20096;-64
2022/06/11 13:01:27;;;;;;;13.68;3.03;;;;;;;;;;5073367;28;20521;-64
2022/06/11 13:04:06;;;;;;;11.77;3.42;;;;;;;;;;5070237;28;20068;-64
2022/06/11 13:06:32;;;;;;;14.93;4.07;;;;;;;;;;5081049;28;20036;-64
2022/06/11 13:09:05;;;;;;;14.80;3.55;;;;;;;;;;5074028;28;20111;-64
2022/06/11 13:11:32;;;;;;;17.15;3.97;;;;;;;;;;5058540;28;20040;-64
2022/06/11 13:14:05;;;;;;;12.35;3.53;;;;;;;;;;5083500;28;20097;-63
2022/06/11 13:16:33;;;;;;;11.80;3.03;;;;;;;;;;5078940;28;20036;-64
2022/06/11 13:19:07;;;;;;;13.48;4.20;;;;;;;;;;5065370;28;20102;-64
2022/06/11 13:21:34;;;;;;;13.38;3.20;;;;;;;;;;5082481;28;20055;-64
2022/06/11 13:24:06;;;;;;;18.27;4.10;;;;;;;;;;5077538;28;20043;-64
2022/06/11 13:26:41;;;;;;;13.50;3.38;;;;;;;;;;5083054;28;20032;-64
2022/06/11 13:29:22;;;;;;;12.40;3.22;;;;;;;;;;5081723;28;20218;-63
2022/06/11 13:31:56;;;;;;;13.60;3.63;;;;;;;;;;5081958;28;20070;-68
2022/06/11 13:34:28;;;;;;;12.57;3.28;;;;;;;;;;5080189;28;20039;-64
2022/06/11 13:37:13;;;;;;;16.95;4.13;;;;;;;;;;5082904;28;20099;-63
2022/06/11 13:39:39;;;;;;;14.98;3.88;;;;;;;;;;5080929;28;20090;-64
2022/06/11 13:42:23;;;;;;;13.10;3.22;;;;;;;;;;5080605;28;20393;-64
2022/06/11 13:45:00;;;;;;;17.73;4.32;;;;;;;;;;5070250;28;20048;-63
2022/06/11 13:47:40;;;;;;;13.35;3.70;;;;;;;;;;5092495;28;20067;-63
2022/06/11 13:50:19;;;;;;;14.85;3.47;;;;;;;;;;5097179;28;20063;-63
2022/06/11 13:55:35;;;;;;;16.02;3.97;;;;;;;;;;5080587;28;22018;-63
2022/06/11 13:58:11;;;;;;;20.77;4.95;;;;;;;;;;5102704;28;20395;-63
2022/06/11 14:00:38;;;;;;;14.13;3.70;;;;;;;;;;5105434;28;20114;-64
2022/06/11 14:03:23;;;;;;;14.93;3.95;;;;;;;;;;5097298;28;20047;-64
2022/06/11 14:05:50;;;;;;;17.70;4.50;;;;;;;;;;5102722;28;20047;-64
2022/06/11 14:08:18;;;;;;;14.13;3.83;;;;;;;;;;5102775;28;20487;-64
2022/06/11 14:10:45;;;;;;;15.48;4.03;;;;;;;;;;5098125;28;20071;-64
2022/06/11 14:13:13;;;;;;;14.02;3.70;;;;;;;;;;5080194;28;20075;-64
2022/06/11 14:15:40;;;;;;;14.90;3.58;;;;;;;;;;5076522;28;20055;-64
2022/06/11 14:18:06;;;;;;;17.90;4.07;;;;;;;;;;5096778;28;20047;-64
2022/06/11 14:20:33;;;;;;;14.50;3.92;;;;;;;;;;5095849;28;20043;-64
2022/06/11 14:23:00;;;;;;;16.10;4.47;;;;;;;;;;5097742;28;20120;-64
2022/06/11 14:25:36;;;;;;;15.00;3.80;;;;;;;;;;5091381;28;20551;-64
2022/06/11 14:28:18;;;;;;;15.88;3.97;;;;;;;;;;5098964;28;21490;-64
2022/06/11 14:30:48;;;;;;;16.27;4.25;;;;;;;;;;5076852;28;20049;-64
2022/06/11 14:33:15;;;;;;;23.30;4.28;;;;;;;;;;5102324;28;20473;-64
2022/06/11 14:35:50;;;;;;;15.75;4.25;;;;;;;;;;5082171;28;20402;-64
2022/06/11 14:38:18;;;;;;;12.57;3.75;;;;;;;;;;5103734;28;20092;-64
2022/06/11 14:40:44;;;;;;;15.30;4.13;;;;;;;;;;5102460;28;20119;-64
2022/06/11 14:43:12;;;;;;;17.75;4.47;;;;;;;;;;5102777;28;20421;-64
2022/06/11 14:45:38;;;;;;;14.13;4.00;;;;;;;;;;5084463;28;20056;-64
2022/06/11 14:48:09;;;;;;;16.60;3.42;;;;;;;;;;5102863;28;20497;-64
2022/06/11 14:50:44;;;;;;;17.45;4.40;;;;;;;;;;5103210;28;20083;-64
2022/06/11 14:53:14;;;;;;;17.95;4.82;;;;;;;;;;5101767;28;21831;-64